sensor_id;sensor_type;location;lat;lon;timestamp;pressure;altitude;pressure_sealevel;temperature;humidity
74594;BME280;63097;51.872;4.460;2023-03-24T00:00:34;99840.41;;;11.67;93.95
74594;BME280;63097;51.872;4.460;2023-03-24T00:02:59;99831.72;;;11.74;93.18
74594;BME280;63097;51.872;4.460;2023-03-24T00:05:25;99819.44;;;11.80;92.98
74594;BME280;63097;51.872;4.460;2023-03-24T00:07:50;99820.25;;;11.85;92.42
74594;BME280;63097;51.872;4.460;2023-03-24T00:10:17;99821.06;;;11.91;91.86
74594;BME280;63097;51.872;4.460;2023-03-24T00:12:44;99817.19;;;11.87;91.87
74594;BME280;63097;51.872;4.460;2023-03-24T00:15:18;99826.63;;;11.96;91.64
74594;BME280;63097;51.872;4.460;2023-03-24T00:17:45;99812.50;;;11.82;92.66
74594;BME280;63097;51.872;4.460;2023-03-24T00:20:12;99813.53;;;11.96;91.57
74594;BME280;63097;51.872;4.460;2023-03-24T00:22:39;99829.66;;;11.99;91.26
74594;BME280;63097;51.872;4.460;2023-03-24T00:25:05;99796.22;;;12.04;90.96
74594;BME280;63097;51.872;4.460;2023-03-24T00:27:30;99804.06;;;11.97;91.48
74594;BME280;63097;51.872;4.460;2023-03-24T00:29:55;99800.34;;;12.07;90.72
74594;BME280;63097;51.872;4.460;2023-03-24T00:32:21;99787.59;;;12.01;91.28
74594;BME280;63097;51.872;4.460;2023-03-24T00:34:46;99790.94;;;12.03;91.20
74594;BME280;63097;51.872;4.460;2023-03-24T00:37:11;99790.00;;;12.12;90.30
74594;BME280;63097;51.872;4.460;2023-03-24T00:39:37;99775.81;;;12.09;90.98
74594;BME280;63097;51.872;4.460;2023-03-24T00:42:02;99786.66;;;12.10;91.02
74594;BME280;63097;51.872;4.460;2023-03-24T00:44:27;99778.84;;;12.12;90.78
74594;BME280;63097;51.872;4.460;2023-03-24T00:46:53;99767.44;;;12.14;90.68
74594;BME280;63097;51.872;4.460;2023-03-24T00:49:18;99764.34;;;12.16;90.47
74594;BME280;63097;51.872;4.460;2023-03-24T00:51:43;99766.84;;;12.17;90.56
74594;BME280;63097;51.872;4.460;2023-03-24T00:54:10;99768.59;;;12.08;91.18
74594;BME280;63097;51.872;4.460;2023-03-24T00:56:37;99764.09;;;12.12;90.84
74594;BME280;63097;51.872;4.460;2023-03-24T00:59:03;99752.63;;;12.19;90.60
74594;BME280;63097;51.872;4.460;2023-03-24T01:01:32;99759.88;;;12.14;91.22
74594;BME280;63097;51.872;4.460;2023-03-24T01:03:58;99745.38;;;12.18;90.94
74594;BME280;63097;51.872;4.460;2023-03-24T01:06:23;99756.78;;;12.21;90.70
74594;BME280;63097;51.872;4.460;2023-03-24T01:08:49;99739.00;;;12.12;91.44
74594;BME280;63097;51.872;4.460;2023-03-24T01:11:15;99737.03;;;12.12;91.32
74594;BME280;63097;51.872;4.460;2023-03-24T01:13:41;99757.09;;;12.14;91.24
74594;BME280;63097;51.872;4.460;2023-03-24T01:16:07;99754.56;;;12.18;91.05
74594;BME280;63097;51.872;4.460;2023-03-24T01:18:33;99761.28;;;12.17;91.19
74594;BME280;63097;51.872;4.460;2023-03-24T01:20:59;99759.06;;;12.14;91.61
74594;BME280;63097;51.872;4.460;2023-03-24T01:23:24;99760.78;;;12.10;92.05
74594;BME280;63097;51.872;4.460;2023-03-24T01:25:50;99776.06;;;12.12;91.85
74594;BME280;63097;51.872;4.460;2023-03-24T01:28:18;99754.81;;;12.22;91.27
74594;BME280;63097;51.872;4.460;2023-03-24T01:30:44;99756.84;;;12.11;92.02
74594;BME280;63097;51.872;4.460;2023-03-24T01:33:09;99765.78;;;12.08;92.65
74594;BME280;63097;51.872;4.460;2023-03-24T01:35:35;99800.09;;;12.03;93.29
74594;BME280;63097;51.872;4.460;2023-03-24T01:38:05;99808.25;;;11.95;93.94
74594;BME280;63097;51.872;4.460;2023-03-24T01:40:33;99824.97;;;11.95;94.15
74594;BME280;63097;51.872;4.460;2023-03-24T01:43:00;99836.13;;;11.90;93.70
74594;BME280;63097;51.872;4.460;2023-03-24T01:48:06;99841.50;;;11.71;93.80
74594;BME280;63097;51.872;4.460;2023-03-24T01:50:33;99841.50;;;11.71;92.28
74594;BME280;63097;51.872;4.460;2023-03-24T01:52:59;99838.22;;;11.49;92.80
74594;BME280;63097;51.872;4.460;2023-03-24T01:55:27;99849.38;;;11.39;92.50
74594;BME280;63097;51.872;4.460;2023-03-24T01:57:55;99853.00;;;11.35;91.19
74594;BME280;63097;51.872;4.460;2023-03-24T02:00:22;99859.13;;;11.27;89.93
74594;BME280;63097;51.872;4.460;2023-03-24T02:02:54;99855.84;;;11.09;89.61
74594;BME280;63097;51.872;4.460;2023-03-24T02:05:22;99872.84;;;10.93;90.15
74594;BME280;63097;51.872;4.460;2023-03-24T02:07:53;99878.38;;;10.83;90.54
74594;BME280;63097;51.872;4.460;2023-03-24T02:10:23;99879.50;;;10.82;89.39
74594;BME280;63097;51.872;4.460;2023-03-24T02:12:49;99884.22;;;10.66;90.62
74594;BME280;63097;51.872;4.460;2023-03-24T02:15:16;99908.13;;;10.57;91.49
74594;BME280;63097;51.872;4.460;2023-03-24T02:26:33;99904.50;;;10.42;89.85
74594;BME280;63097;51.872;4.460;2023-03-24T02:41:31;99938.19;;;10.03;90.75
74594;BME280;63097;51.872;4.460;2023-03-24T02:44:05;99950.63;;;9.86;91.51
74594;BME280;63097;51.872;4.460;2023-03-24T02:54:59;99967.25;;;9.76;91.82
74594;BME280;63097;51.872;4.460;2023-03-24T02:57:33;99968.03;;;9.66;92.03
74594;BME280;63097;51.872;4.460;2023-03-24T03:00:07;99976.28;;;9.56;92.76
74594;BME280;63097;51.872;4.460;2023-03-24T03:02:40;99960.94;;;9.49;92.82
74594;BME280;63097;51.872;4.460;2023-03-24T03:05:18;99973.16;;;9.48;93.11
74594;BME280;63097;51.872;4.460;2023-03-24T03:07:47;99984.25;;;9.43;92.89
74594;BME280;63097;51.872;4.460;2023-03-24T03:10:18;99991.31;;;9.29;93.47
74594;BME280;63097;51.872;4.460;2023-03-24T03:12:47;99982.22;;;9.33;93.42
74594;BME280;63097;51.872;4.460;2023-03-24T03:15:23;99984.72;;;9.35;93.57
74594;BME280;63097;51.872;4.460;2023-03-24T03:17:57;99980.88;;;9.36;93.43
74594;BME280;63097;51.872;4.460;2023-03-24T03:20:25;100003.38;;;9.39;93.57
74594;BME280;63097;51.872;4.460;2023-03-24T03:23:07;100003.63;;;9.38;93.72
74594;BME280;63097;51.872;4.460;2023-03-24T03:25:42;99998.13;;;9.43;93.73
74594;BME280;63097;51.872;4.460;2023-03-24T03:28:12;100005.34;;;9.44;93.47
74594;BME280;63097;51.872;4.460;2023-03-24T03:30:44;100006.75;;;9.46;93.51
74594;BME280;63097;51.872;4.460;2023-03-24T03:33:19;100005.84;;;9.36;93.42
74594;BME280;63097;51.872;4.460;2023-03-24T03:35:51;100021.38;;;9.37;93.00
74594;BME280;63097;51.872;4.460;2023-03-24T03:40:57;100020.22;;;9.33;92.09
74594;BME280;63097;51.872;4.460;2023-03-24T03:43:25;100016.00;;;9.25;92.34
74594;BME280;63097;51.872;4.460;2023-03-24T03:45:51;100014.66;;;9.28;91.48
74594;BME280;63097;51.872;4.460;2023-03-24T03:48:17;100022.63;;;9.19;91.73
74594;BME280;63097;51.872;4.460;2023-03-24T03:50:43;100023.66;;;9.13;91.43
74594;BME280;63097;51.872;4.460;2023-03-24T03:53:09;100022.06;;;9.17;91.25
74594;BME280;63097;51.872;4.460;2023-03-24T03:55:35;100035.94;;;9.17;91.17
74594;BME280;63097;51.872;4.460;2023-03-24T03:58:02;100026.47;;;9.18;90.50
74594;BME280;63097;51.872;4.460;2023-03-24T04:00:27;100028.06;;;9.09;90.75
74594;BME280;63097;51.872;4.460;2023-03-24T04:09:24;100028.59;;;9.06;90.63
74594;BME280;63097;51.872;4.460;2023-03-24T04:20:39;100058.22;;;9.00;91.23
74594;BME280;63097;51.872;4.460;2023-03-24T04:26:07;100059.13;;;9.06;91.16
74594;BME280;63097;51.872;4.460;2023-03-24T04:28:48;100069.63;;;9.04;91.29
74594;BME280;63097;51.872;4.460;2023-03-24T04:31:28;100056.91;;;9.08;90.81
74594;BME280;63097;51.872;4.460;2023-03-24T04:34:44;100085.97;;;9.00;91.45
74594;BME280;63097;51.872;4.460;2023-03-24T04:37:01;100054.06;;;9.03;91.35
74594;BME280;63097;51.872;4.460;2023-03-24T04:39:30;100069.81;;;8.97;92.03
74594;BME280;63097;51.872;4.460;2023-03-24T04:42:00;100067.13;;;9.02;92.04
74594;BME280;63097;51.872;4.460;2023-03-24T04:44:27;100069.41;;;9.10;92.11
74594;BME280;63097;51.872;4.460;2023-03-24T04:46:56;100080.50;;;9.10;92.08
74594;BME280;63097;51.872;4.460;2023-03-24T04:49:22;100089.94;;;9.09;92.52
74594;BME280;63097;51.872;4.460;2023-03-24T04:51:47;100078.94;;;9.20;92.27
74594;BME280;63097;51.872;4.460;2023-03-24T04:54:13;100091.09;;;9.13;92.44
74594;BME280;63097;51.872;4.460;2023-03-24T04:56:47;100094.03;;;9.02;92.86
74594;BME280;63097;51.872;4.460;2023-03-24T04:59:13;100092.09;;;9.02;92.55
74594;BME280;63097;51.872;4.460;2023-03-24T05:01:39;100100.16;;;9.04;91.95
74594;BME280;63097;51.872;4.460;2023-03-24T05:04:05;100099.13;;;9.10;91.48
74594;BME280;63097;51.872;4.460;2023-03-24T05:06:31;100111.34;;;9.14;90.57
74594;BME280;63097;51.872;4.460;2023-03-24T05:08:57;100091.91;;;9.14;90.29
74594;BME280;63097;51.872;4.460;2023-03-24T05:11:24;100113.94;;;9.21;89.96
74594;BME280;63097;51.872;4.460;2023-03-24T05:13:49;100108.75;;;9.02;90.78
74594;BME280;63097;51.872;4.460;2023-03-24T05:16:15;100116.13;;;9.19;90.44
74594;BME280;63097;51.872;4.460;2023-03-24T05:18:40;100119.94;;;9.12;90.70
74594;BME280;63097;51.872;4.460;2023-03-24T05:21:05;100133.66;;;9.24;90.29
74594;BME280;63097;51.872;4.460;2023-03-24T05:23:31;100127.84;;;9.26;89.92
74594;BME280;63097;51.872;4.460;2023-03-24T05:25:56;100132.06;;;9.28;90.26
74594;BME280;63097;51.872;4.460;2023-03-24T05:28:21;100123.75;;;9.33;89.50
74594;BME280;63097;51.872;4.460;2023-03-24T05:30:47;100116.63;;;9.42;89.28
74594;BME280;63097;51.872;4.460;2023-03-24T05:33:12;100140.03;;;9.51;88.57
74594;BME280;63097;51.872;4.460;2023-03-24T05:35:37;100134.38;;;9.68;87.33
74594;BME280;63097;51.872;4.460;2023-03-24T05:38:03;100136.78;;;9.59;87.56
74594;BME280;63097;51.872;4.460;2023-03-24T05:40:28;100143.28;;;9.70;86.81
74594;BME280;63097;51.872;4.460;2023-03-24T05:42:53;100139.91;;;9.68;86.66
74594;BME280;63097;51.872;4.460;2023-03-24T05:45:19;100121.84;;;9.65;86.73
74594;BME280;63097;51.872;4.460;2023-03-24T05:47:45;100136.25;;;9.62;86.57
74594;BME280;63097;51.872;4.460;2023-03-24T05:50:10;100131.47;;;9.58;87.79
74594;BME280;63097;51.872;4.460;2023-03-24T05:52:35;100155.53;;;9.74;86.77
74594;BME280;63097;51.872;4.460;2023-03-24T05:55:01;100156.59;;;9.68;87.68
74594;BME280;63097;51.872;4.460;2023-03-24T05:57:27;100156.03;;;9.71;87.10
74594;BME280;63097;51.872;4.460;2023-03-24T05:59:52;100158.31;;;9.74;86.97
74594;BME280;63097;51.872;4.460;2023-03-24T06:02:17;100155.13;;;9.60;87.69
74594;BME280;63097;51.872;4.460;2023-03-24T06:04:43;100169.63;;;9.67;87.64
74594;BME280;63097;51.872;4.460;2023-03-24T06:07:08;100152.75;;;9.74;86.94
74594;BME280;63097;51.872;4.460;2023-03-24T06:09:33;100160.72;;;9.65;87.70
74594;BME280;63097;51.872;4.460;2023-03-24T06:11:59;100168.81;;;9.67;87.19
74594;BME280;63097;51.872;4.460;2023-03-24T06:14:24;100167.56;;;9.58;88.24
74594;BME280;63097;51.872;4.460;2023-03-24T06:16:49;100176.28;;;9.66;87.76
74594;BME280;63097;51.872;4.460;2023-03-24T06:19:15;100180.09;;;9.60;88.12
74594;BME280;63097;51.872;4.460;2023-03-24T06:21:41;100184.34;;;9.68;87.74
74594;BME280;63097;51.872;4.460;2023-03-24T06:24:07;100178.34;;;9.76;86.93
74594;BME280;63097;51.872;4.460;2023-03-24T06:26:32;100196.34;;;9.73;87.58
74594;BME280;63097;51.872;4.460;2023-03-24T06:28:57;100187.72;;;9.70;87.26
74594;BME280;63097;51.872;4.460;2023-03-24T06:31:24;100192.31;;;9.86;86.76
74594;BME280;63097;51.872;4.460;2023-03-24T06:33:50;100201.97;;;9.83;86.75
74594;BME280;63097;51.872;4.460;2023-03-24T06:36:16;100198.75;;;9.91;86.56
74594;BME280;63097;51.872;4.460;2023-03-24T06:38:41;100204.00;;;9.88;86.92
74594;BME280;63097;51.872;4.460;2023-03-24T06:41:07;100219.59;;;9.94;86.57
74594;BME280;63097;51.872;4.460;2023-03-24T06:43:33;100214.63;;;9.96;86.15
74594;BME280;63097;51.872;4.460;2023-03-24T06:45:59;100214.06;;;9.94;86.38
74594;BME280;63097;51.872;4.460;2023-03-24T06:48:25;100224.06;;;9.95;86.33
74594;BME280;63097;51.872;4.460;2023-03-24T06:50:54;100223.63;;;10.08;85.78
74594;BME280;63097;51.872;4.460;2023-03-24T06:53:20;100224.63;;;9.97;86.39
74594;BME280;63097;51.872;4.460;2023-03-24T06:55:45;100229.13;;;10.03;86.22
74594;BME280;63097;51.872;4.460;2023-03-24T06:58:10;100235.34;;;10.10;86.52
74594;BME280;63097;51.872;4.460;2023-03-24T07:00:36;100237.69;;;10.23;85.29
74594;BME280;63097;51.872;4.460;2023-03-24T07:03:01;100244.19;;;10.07;87.02
74594;BME280;63097;51.872;4.460;2023-03-24T07:05:27;100232.28;;;10.11;86.38
74594;BME280;63097;51.872;4.460;2023-03-24T07:07:53;100244.97;;;10.29;85.77
74594;BME280;63097;51.872;4.460;2023-03-24T07:10:19;100235.41;;;10.20;86.01
74594;BME280;63097;51.872;4.460;2023-03-24T07:12:44;100237.88;;;10.17;87.15
74594;BME280;63097;51.872;4.460;2023-03-24T07:15:10;100250.47;;;10.24;86.06
74594;BME280;63097;51.872;4.460;2023-03-24T07:17:35;100256.72;;;10.41;85.20
74594;BME280;63097;51.872;4.460;2023-03-24T07:20:01;100259.22;;;10.38;86.18
74594;BME280;63097;51.872;4.460;2023-03-24T07:22:26;100266.22;;;10.45;85.77
74594;BME280;63097;51.872;4.460;2023-03-24T07:24:51;100260.06;;;10.38;86.05
74594;BME280;63097;51.872;4.460;2023-03-24T07:27:17;100256.25;;;10.49;84.96
74594;BME280;63097;51.872;4.460;2023-03-24T07:29:42;100260.22;;;10.58;85.28
74594;BME280;63097;51.872;4.460;2023-03-24T07:32:08;100269.94;;;10.61;84.74
74594;BME280;63097;51.872;4.460;2023-03-24T07:34:33;100266.41;;;10.70;84.38
74594;BME280;63097;51.872;4.460;2023-03-24T07:36:59;100279.44;;;10.65;84.78
74594;BME280;63097;51.872;4.460;2023-03-24T07:39:24;100277.19;;;10.62;85.14
74594;BME280;63097;51.872;4.460;2023-03-24T07:41:50;100286.47;;;10.77;84.44
74594;BME280;63097;51.872;4.460;2023-03-24T07:44:15;100283.19;;;10.85;83.67
74594;BME280;63097;51.872;4.460;2023-03-24T07:46:41;100281.03;;;10.92;83.94
74594;BME280;63097;51.872;4.460;2023-03-24T07:49:06;100277.75;;;11.05;82.45
74594;BME280;63097;51.872;4.460;2023-03-24T07:51:32;100279.78;;;11.15;83.35
74594;BME280;63097;51.872;4.460;2023-03-24T07:53:57;100281.72;;;11.14;83.21
74594;BME280;63097;51.872;4.460;2023-03-24T07:56:23;100281.59;;;11.46;82.39
74594;BME280;63097;51.872;4.460;2023-03-24T07:58:48;100286.22;;;11.26;81.61
74594;BME280;63097;51.872;4.460;2023-03-24T08:01:13;100282.31;;;11.27;82.79
74594;BME280;63097;51.872;4.460;2023-03-24T08:03:39;100287.75;;;11.58;81.48
74594;BME280;63097;51.872;4.460;2023-03-24T08:06:05;100297.28;;;11.67;80.11
74594;BME280;63097;51.872;4.460;2023-03-24T08:08:31;100293.69;;;11.72;79.60
74594;BME280;63097;51.872;4.460;2023-03-24T08:10:56;100306.22;;;11.69;79.13
74594;BME280;63097;51.872;4.460;2023-03-24T08:13:22;100307.63;;;11.77;78.71
74594;BME280;63097;51.872;4.460;2023-03-24T08:15:48;100304.09;;;12.11;78.18
74594;BME280;63097;51.872;4.460;2023-03-24T08:18:13;100304.97;;;12.32;76.23
74594;BME280;63097;51.872;4.460;2023-03-24T08:20:39;100307.47;;;12.24;76.57
74594;BME280;63097;51.872;4.460;2023-03-24T08:23:04;100303.28;;;12.21;76.37
74594;BME280;63097;51.872;4.460;2023-03-24T08:25:30;100290.44;;;12.20;77.06
74594;BME280;63097;51.872;4.460;2023-03-24T08:27:55;100304.13;;;12.62;75.78
74594;BME280;63097;51.872;4.460;2023-03-24T08:30:23;100304.41;;;12.80;75.99
74594;BME280;63097;51.872;4.460;2023-03-24T08:32:52;100305.53;;;12.64;75.01
74594;BME280;63097;51.872;4.460;2023-03-24T08:35:23;100315.84;;;12.34;75.24
74594;BME280;63097;51.872;4.460;2023-03-24T08:37:49;100316.94;;;12.28;76.18
74594;BME280;63097;51.872;4.460;2023-03-24T08:40:17;100314.94;;;11.93;77.63
74594;BME280;63097;51.872;4.460;2023-03-24T08:42:43;100322.44;;;11.92;76.62
74594;BME280;63097;51.872;4.460;2023-03-24T08:45:10;100319.13;;;12.05;76.97
74594;BME280;63097;51.872;4.460;2023-03-24T08:47:36;100322.78;;;12.16;76.28
74594;BME280;63097;51.872;4.460;2023-03-24T08:50:01;100344.56;;;12.29;75.13
74594;BME280;63097;51.872;4.460;2023-03-24T08:52:27;100334.50;;;12.18;74.96
74594;BME280;63097;51.872;4.460;2023-03-24T08:54:52;100339.16;;;11.92;74.13
74594;BME280;63097;51.872;4.460;2023-03-24T08:57:17;100339.34;;;11.66;75.49
74594;BME280;63097;51.872;4.460;2023-03-24T08:59:43;100350.03;;;11.89;74.22
74594;BME280;63097;51.872;4.460;2023-03-24T09:02:10;100345.06;;;12.11;73.37
74594;BME280;63097;51.872;4.460;2023-03-24T09:04:36;100345.69;;;12.33;73.60
74594;BME280;63097;51.872;4.460;2023-03-24T09:07:02;100344.00;;;12.22;73.19
74594;BME280;63097;51.872;4.460;2023-03-24T09:09:27;100348.44;;;12.08;73.98
74594;BME280;63097;51.872;4.460;2023-03-24T09:11:53;100358.81;;;12.38;73.09
74594;BME280;63097;51.872;4.460;2023-03-24T09:14:18;100363.25;;;12.34;73.00
74594;BME280;63097;51.872;4.460;2023-03-24T09:16:43;100361.34;;;12.54;72.05
74594;BME280;63097;51.872;4.460;2023-03-24T09:19:09;100363.59;;;12.72;71.68
74594;BME280;63097;51.872;4.460;2023-03-24T09:21:34;100360.25;;;13.16;71.91
74594;BME280;63097;51.872;4.460;2023-03-24T09:23:59;100360.50;;;13.24;67.69
74594;BME280;63097;51.872;4.460;2023-03-24T09:26:24;100375.28;;;12.89;69.28
74594;BME280;63097;51.872;4.460;2023-03-24T09:28:50;100382.00;;;12.78;70.78
74594;BME280;63097;51.872;4.460;2023-03-24T09:31:15;100371.91;;;12.37;70.89
74594;BME280;63097;51.872;4.460;2023-03-24T09:33:40;100377.50;;;12.37;71.99
74594;BME280;63097;51.872;4.460;2023-03-24T09:36:06;100379.19;;;12.48;70.34
74594;BME280;63097;51.872;4.460;2023-03-24T09:38:31;100371.91;;;12.42;70.93
74594;BME280;63097;51.872;4.460;2023-03-24T09:40:58;100395.06;;;12.48;70.79
74594;BME280;63097;51.872;4.460;2023-03-24T09:43:35;100380.53;;;12.31;71.19
74594;BME280;63097;51.872;4.460;2023-03-24T09:46:04;100389.00;;;12.71;70.56
74594;BME280;63097;51.872;4.460;2023-03-24T09:48:44;100389.53;;;13.33;69.14
74594;BME280;63097;51.872;4.460;2023-03-24T09:51:35;100385.34;;;13.21;69.53
74594;BME280;63097;51.872;4.460;2023-03-24T09:56:28;100386.22;;;13.16;67.19
74594;BME280;63097;51.872;4.460;2023-03-24T09:59:06;100377.25;;;13.34;67.04
74594;BME280;63097;51.872;4.460;2023-03-24T10:01:33;100390.53;;;13.77;67.17
74594;BME280;63097;51.872;4.460;2023-03-24T10:03:59;100380.13;;;13.98;66.32
74594;BME280;63097;51.872;4.460;2023-03-24T10:06:40;100386.13;;;14.25;67.47
74594;BME280;63097;51.872;4.460;2023-03-24T10:09:17;100390.53;;;14.41;66.68
74594;BME280;63097;51.872;4.460;2023-03-24T10:11:55;100390.94;;;13.36;69.50
74594;BME280;63097;51.872;4.460;2023-03-24T10:19:29;100389.53;;;13.43;68.46
74594;BME280;63097;51.872;4.460;2023-03-24T10:22:05;100382.56;;;13.36;67.38
74594;BME280;63097;51.872;4.460;2023-03-24T10:24:43;100386.78;;;13.03;69.02
74594;BME280;63097;51.872;4.460;2023-03-24T10:29:46;100393.44;;;12.72;70.74
74594;BME280;63097;51.872;4.460;2023-03-24T10:32:19;100380.31;;;13.48;68.24
74594;BME280;63097;51.872;4.460;2023-03-24T10:34:48;100392.16;;;13.98;66.85
74594;BME280;63097;51.872;4.460;2023-03-24T10:37:17;100389.19;;;14.39;67.30
74594;BME280;63097;51.872;4.460;2023-03-24T10:39:43;100395.19;;;14.07;66.91
74594;BME280;63097;51.872;4.460;2023-03-24T10:42:14;100397.06;;;13.48;68.44
74594;BME280;63097;51.872;4.460;2023-03-24T10:44:40;100411.06;;;13.02;70.92
74594;BME280;63097;51.872;4.460;2023-03-24T10:47:08;100409.34;;;12.71;70.84
74594;BME280;63097;51.872;4.460;2023-03-24T10:49:34;100400.69;;;12.88;71.10
74594;BME280;63097;51.872;4.460;2023-03-24T10:52:01;100417.75;;;13.11;71.10
74594;BME280;63097;51.872;4.460;2023-03-24T10:54:28;100382.31;;;13.12;69.42
74594;BME280;63097;51.872;4.460;2023-03-24T11:04:36;100403.97;;;13.75;65.69
74594;BME280;63097;51.872;4.460;2023-03-24T11:07:06;100397.91;;;14.76;64.98
74594;BME280;63097;51.872;4.460;2023-03-24T11:09:42;100395.78;;;14.91;61.42
74594;BME280;63097;51.872;4.460;2023-03-24T11:12:27;100390.91;;;16.54;56.76
74594;BME280;63097;51.872;4.460;2023-03-24T11:15:00;100396.34;;;16.45;56.09
74594;BME280;63097;51.872;4.460;2023-03-24T11:17:26;100399.03;;;15.66;58.13
74594;BME280;63097;51.872;4.460;2023-03-24T11:19:54;100400.13;;;15.93;57.97
74594;BME280;63097;51.872;4.460;2023-03-24T11:22:20;100414.06;;;15.75;58.12
74594;BME280;63097;51.872;4.460;2023-03-24T11:24:51;100393.66;;;15.12;59.25
74594;BME280;63097;51.872;4.460;2023-03-24T11:27:19;100395.09;;;14.22;60.79
74594;BME280;63097;51.872;4.460;2023-03-24T11:29:48;100403.19;;;14.34;61.18
74594;BME280;63097;51.872;4.460;2023-03-24T11:32:21;100407.41;;;14.21;62.06
74594;BME280;63097;51.872;4.460;2023-03-24T11:34:49;100419.66;;;13.71;63.47
74594;BME280;63097;51.872;4.460;2023-03-24T11:37:18;100412.66;;;13.59;64.64
74594;BME280;63097;51.872;4.460;2023-03-24T11:40:04;100412.72;;;13.19;65.08
74594;BME280;63097;51.872;4.460;2023-03-24T11:42:48;100396.81;;;13.34;65.66
74594;BME280;63097;51.872;4.460;2023-03-24T11:47:47;100414.97;;;13.06;66.76
74594;BME280;63097;51.872;4.460;2023-03-24T11:50:18;100431.66;;;13.72;65.05
74594;BME280;63097;51.872;4.460;2023-03-24T11:52:55;100409.66;;;14.24;62.57
74594;BME280;63097;51.872;4.460;2023-03-24T11:58:27;100406.44;;;14.56;63.11
74594;BME280;63097;51.872;4.460;2023-03-24T12:03:37;100401.66;;;14.95;61.60
74594;BME280;63097;51.872;4.460;2023-03-24T12:17:22;100397.59;;;18.41;50.70
74594;BME280;63097;51.872;4.460;2023-03-24T12:20:06;100391.78;;;18.37;50.68
74594;BME280;63097;51.872;4.460;2023-03-24T12:22:43;100393.88;;;17.77;52.46
74594;BME280;63097;51.872;4.460;2023-03-24T12:25:43;100408.03;;;15.63;56.85
74594;BME280;63097;51.872;4.460;2023-03-24T12:28:32;100417.19;;;14.24;60.95
74594;BME280;63097;51.872;4.460;2023-03-24T12:31:17;100421.75;;;14.09;63.00
74594;BME280;63097;51.872;4.460;2023-03-24T12:33:57;100404.84;;;15.98;56.67
74594;BME280;63097;51.872;4.460;2023-03-24T12:36:40;100376.66;;;16.50;55.55
74594;BME280;63097;51.872;4.460;2023-03-24T12:39:14;100389.56;;;15.62;56.66
74594;BME280;63097;51.872;4.460;2023-03-24T12:42:08;100379.41;;;16.55;55.27
74594;BME280;63097;51.872;4.460;2023-03-24T12:55:35;100388.28;;;14.48;61.19
74594;BME280;63097;51.872;4.460;2023-03-24T13:06:12;100385.34;;;12.95;68.47
74594;BME280;63097;51.872;4.460;2023-03-24T13:08:43;100395.38;;;12.71;73.35
74594;BME280;63097;51.872;4.460;2023-03-24T13:11:11;100383.09;;;13.43;70.85
74594;BME280;63097;51.872;4.460;2023-03-24T13:13:41;100394.97;;;13.93;71.06
74594;BME280;63097;51.872;4.460;2023-03-24T13:16:12;100397.75;;;13.98;67.40
74594;BME280;63097;51.872;4.460;2023-03-24T13:18:50;100403.44;;;13.68;69.14
74594;BME280;63097;51.872;4.460;2023-03-24T13:21:23;100387.91;;;14.01;65.54
74594;BME280;63097;51.872;4.460;2023-03-24T13:24:01;100383.31;;;14.35;67.25
74594;BME280;63097;51.872;4.460;2023-03-24T13:26:46;100369.50;;;15.97;61.72
74594;BME280;63097;51.872;4.460;2023-03-24T13:32:09;100356.34;;;16.90;56.83
74594;BME280;63097;51.872;4.460;2023-03-24T13:34:40;100352.84;;;17.31;55.39
74594;BME280;63097;51.872;4.460;2023-03-24T13:37:15;100360.97;;;17.00;54.96
74594;BME280;63097;51.872;4.460;2023-03-24T13:39:44;100353.41;;;16.45;57.13
74594;BME280;63097;51.872;4.460;2023-03-24T13:42:32;100365.72;;;16.86;55.47
74594;BME280;63097;51.872;4.460;2023-03-24T13:45:01;100363.78;;;16.26;57.81
74594;BME280;63097;51.872;4.460;2023-03-24T13:47:46;100362.53;;;15.71;57.93
74594;BME280;63097;51.872;4.460;2023-03-24T13:50:12;100345.81;;;15.08;61.05
74594;BME280;63097;51.872;4.460;2023-03-24T13:52:42;100357.34;;;14.25;64.44
74594;BME280;63097;51.872;4.460;2023-03-24T13:55:23;100341.56;;;14.44;62.67
74594;BME280;63097;51.872;4.460;2023-03-24T13:58:15;100362.06;;;16.30;57.84
74594;BME280;63097;51.872;4.460;2023-03-24T14:01:13;100352.31;;;16.96;54.00
74594;BME280;63097;51.872;4.460;2023-03-24T14:03:41;100351.28;;;16.18;56.53
74594;BME280;63097;51.872;4.460;2023-03-24T14:06:08;100345.28;;;17.45;52.98
74594;BME280;63097;51.872;4.460;2023-03-24T14:14:19;100346.03;;;16.30;55.57
74594;BME280;63097;51.872;4.460;2023-03-24T14:19:42;100335.22;;;17.12;53.78
74594;BME280;63097;51.872;4.460;2023-03-24T14:22:20;100368.47;;;17.37;53.00
74594;BME280;63097;51.872;4.460;2023-03-24T14:24:58;100349.66;;;16.54;54.24
74594;BME280;63097;51.872;4.460;2023-03-24T14:30:20;100325.00;;;17.61;51.83
74594;BME280;63097;51.872;4.460;2023-03-24T14:32:49;100328.34;;;16.53;54.69
74594;BME280;63097;51.872;4.460;2023-03-24T14:35:25;100327.97;;;18.19;51.07
74594;BME280;63097;51.872;4.460;2023-03-24T14:38:17;100335.31;;;17.52;51.91
74594;BME280;63097;51.872;4.460;2023-03-24T14:40:47;100335.34;;;16.88;53.92
74594;BME280;63097;51.872;4.460;2023-03-24T14:49:09;100335.19;;;16.79;55.36
74594;BME280;63097;51.872;4.460;2023-03-24T14:51:41;100335.59;;;17.51;54.11
74594;BME280;63097;51.872;4.460;2023-03-24T14:54:55;100330.91;;;17.00;53.73
74594;BME280;63097;51.872;4.460;2023-03-24T14:57:29;100345.41;;;17.53;53.00
74594;BME280;63097;51.872;4.460;2023-03-24T15:02:35;100330.66;;;19.18;49.82
74594;BME280;63097;51.872;4.460;2023-03-24T15:05:27;100365.19;;;18.30;50.67
74594;BME280;63097;51.872;4.460;2023-03-24T15:10:25;100321.22;;;18.06;50.50
74594;BME280;63097;51.872;4.460;2023-03-24T15:12:51;100327.28;;;18.85;48.60
74594;BME280;63097;51.872;4.460;2023-03-24T15:15:23;100307.69;;;19.55;47.83
74594;BME280;63097;51.872;4.460;2023-03-24T15:17:50;100320.31;;;18.60;49.04
74594;BME280;63097;51.872;4.460;2023-03-24T15:20:27;100326.94;;;18.15;51.82